sensor_id;sensor_type;location;lat;lon;timestamp;P1;durP1;ratioP1;P2;durP2;ratioP2
3971;SDS011;2000;47.572;14.202;2023-08-30T00:01:11;0.20;;;0.20;;
3971;SDS011;2000;47.572;14.202;2023-08-30T00:03:38;0.30;;;0.20;;
3971;SDS011;2000;47.572;14.202;2023-08-30T00:06:06;0.40;;;0.20;;
3971;SDS011;2000;47.572;14.202;2023-08-30T00:08:33;0.30;;;0.20;;
3971;SDS011;2000;47.572;14.202;2023-08-30T00:11:01;0.30;;;0.20;;
3971;SDS011;2000;47.572;14.202;2023-08-30T00:13:30;2.00;;;0.20;;
3971;SDS011;2000;47.572;14.202;2023-08-30T00:15:58;0.40;;;0.23;;
3971;SDS011;2000;47.572;14.202;2023-08-30T00:18:25;0.30;;;0.20;;
3971;SDS011;2000;47.572;14.202;2023-08-30T00:20:52;1.47;;;0.50;;
3971;SDS011;2000;47.572;14.202;2023-08-30T00:23:19;0.30;;;0.20;;
3971;SDS011;2000;47.572;14.202;2023-08-30T00:25:46;0.60;;;0.20;;
3971;SDS011;2000;47.572;14.202;2023-08-30T00:28:13;0.30;;;0.20;;
3971;SDS011;2000;47.572;14.202;2023-08-30T00:30:40;2.53;;;0.20;;
3971;SDS011;2000;47.572;14.202;2023-08-30T00:33:07;0.27;;;0.20;;
3971;SDS011;2000;47.572;14.202;2023-08-30T00:35:34;0.23;;;0.20;;
3971;SDS011;2000;47.572;14.202;2023-08-30T00:38:01;0.20;;;0.20;;
3971;SDS011;2000;47.572;14.202;2023-08-30T00:40:28;1.07;;;0.20;;
3971;SDS011;2000;47.572;14.202;2023-08-30T00:42:56;0.33;;;0.20;;
3971;SDS011;2000;47.572;14.202;2023-08-30T00:45:23;0.27;;;0.20;;
3971;SDS011;2000;47.572;14.202;2023-08-30T00:47:50;0.30;;;0.20;;
3971;SDS011;2000;47.572;14.202;2023-08-30T00:50:17;0.30;;;0.20;;
3971;SDS011;2000;47.572;14.202;2023-08-30T00:52:44;0.30;;;0.20;;
3971;SDS011;2000;47.572;14.202;2023-08-30T00:55:11;1.03;;;0.20;;
3971;SDS011;2000;47.572;14.202;2023-08-30T00:57:38;0.20;;;0.20;;
3971;SDS011;2000;47.572;14.202;2023-08-30T01:00:05;0.40;;;0.30;;
3971;SDS011;2000;47.572;14.202;2023-08-30T01:02:33;0.83;;;0.37;;
3971;SDS011;2000;47.572;14.202;2023-08-30T01:05:02;0.30;;;0.20;;
3971;SDS011;2000;47.572;14.202;2023-08-30T01:07:29;0.20;;;0.20;;
3971;SDS011;2000;47.572;14.202;2023-08-30T01:09:56;0.30;;;0.20;;
3971;SDS011;2000;47.572;14.202;2023-08-30T01:12:24;0.20;;;0.20;;
3971;SDS011;2000;47.572;14.202;2023-08-30T01:15:04;0.20;;;0.20;;
3971;SDS011;2000;47.572;14.202;2023-08-30T01:17:33;1.00;;;0.30;;
3971;SDS011;2000;47.572;14.202;2023-08-30T01:20:05;1.27;;;0.30;;
3971;SDS011;2000;47.572;14.202;2023-08-30T01:28:19;5.30;;;0.60;;
3971;SDS011;2000;47.572;14.202;2023-08-30T01:30:49;0.70;;;0.53;;
3971;SDS011;2000;47.572;14.202;2023-08-30T01:33:16;2.10;;;0.27;;
3971;SDS011;2000;47.572;14.202;2023-08-30T01:35:44;1.27;;;0.30;;
3971;SDS011;2000;47.572;14.202;2023-08-30T01:38:11;0.20;;;0.20;;
3971;SDS011;2000;47.572;14.202;2023-08-30T01:40:39;5.87;;;0.30;;
3971;SDS011;2000;47.572;14.202;2023-08-30T01:43:09;0.90;;;0.27;;
3971;SDS011;2000;47.572;14.202;2023-08-30T01:45:42;0.23;;;0.20;;
3971;SDS011;2000;47.572;14.202;2023-08-30T01:48:14;0.30;;;0.20;;
3971;SDS011;2000;47.572;14.202;2023-08-30T01:50:43;0.30;;;0.20;;
3971;SDS011;2000;47.572;14.202;2023-08-30T01:53:10;1.07;;;0.23;;
3971;SDS011;2000;47.572;14.202;2023-08-30T01:55:38;0.43;;;0.30;;
3971;SDS011;2000;47.572;14.202;2023-08-30T01:58:06;0.40;;;0.20;;
3971;SDS011;2000;47.572;14.202;2023-08-30T02:00:37;1.33;;;0.20;;
3971;SDS011;2000;47.572;14.202;2023-08-30T02:03:08;0.20;;;0.20;;
3971;SDS011;2000;47.572;14.202;2023-08-30T02:05:37;0.40;;;0.20;;
3971;SDS011;2000;47.572;14.202;2023-08-30T02:08:26;0.20;;;0.20;;
3971;SDS011;2000;47.572;14.202;2023-08-30T02:11:01;5.47;;;0.30;;
3971;SDS011;2000;47.572;14.202;2023-08-30T02:13:32;2.23;;;0.20;;
3971;SDS011;2000;47.572;14.202;2023-08-30T02:16:00;0.97;;;0.97;;
3971;SDS011;2000;47.572;14.202;2023-08-30T02:18:28;0.20;;;0.20;;
3971;SDS011;2000;47.572;14.202;2023-08-30T02:20:55;0.20;;;0.20;;
3971;SDS011;2000;47.572;14.202;2023-08-30T02:23:23;0.30;;;0.20;;
3971;SDS011;2000;47.572;14.202;2023-08-30T02:25:51;2.20;;;0.20;;
3971;SDS011;2000;47.572;14.202;2023-08-30T02:28:20;0.30;;;0.20;;
3971;SDS011;2000;47.572;14.202;2023-08-30T02:30:47;3.60;;;0.20;;
3971;SDS011;2000;47.572;14.202;2023-08-30T02:33:14;7.00;;;0.83;;
3971;SDS011;2000;47.572;14.202;2023-08-30T02:35:41;0.30;;;0.30;;
3971;SDS011;2000;47.572;14.202;2023-08-30T02:38:08;2.73;;;0.20;;
3971;SDS011;2000;47.572;14.202;2023-08-30T02:40:35;2.30;;;0.30;;
3971;SDS011;2000;47.572;14.202;2023-08-30T02:43:02;3.40;;;0.33;;
3971;SDS011;2000;47.572;14.202;2023-08-30T02:45:29;1.20;;;0.27;;
3971;SDS011;2000;47.572;14.202;2023-08-30T02:47:55;0.30;;;0.20;;
3971;SDS011;2000;47.572;14.202;2023-08-30T02:50:25;0.30;;;0.20;;
3971;SDS011;2000;47.572;14.202;2023-08-30T02:52:52;1.07;;;0.20;;
3971;SDS011;2000;47.572;14.202;2023-08-30T02:55:19;0.60;;;0.20;;
3971;SDS011;2000;47.572;14.202;2023-08-30T02:57:46;1.70;;;0.33;;
3971;SDS011;2000;47.572;14.202;2023-08-30T03:00:13;0.30;;;0.30;;
3971;SDS011;2000;47.572;14.202;2023-08-30T03:02:41;0.30;;;0.20;;
3971;SDS011;2000;47.572;14.202;2023-08-30T03:05:08;0.30;;;0.30;;
3971;SDS011;2000;47.572;14.202;2023-08-30T03:07:35;0.30;;;0.20;;
3971;SDS011;2000;47.572;14.202;2023-08-30T03:10:01;0.57;;;0.30;;
3971;SDS011;2000;47.572;14.202;2023-08-30T03:12:29;0.30;;;0.30;;
3971;SDS011;2000;47.572;14.202;2023-08-30T03:14:56;0.30;;;0.20;;
3971;SDS011;2000;47.572;14.202;2023-08-30T03:17:23;0.30;;;0.20;;
3971;SDS011;2000;47.572;14.202;2023-08-30T03:19:51;0.30;;;0.30;;
3971;SDS011;2000;47.572;14.202;2023-08-30T03:22:22;0.30;;;0.20;;
3971;SDS011;2000;47.572;14.202;2023-08-30T03:24:49;1.70;;;0.20;;
3971;SDS011;2000;47.572;14.202;2023-08-30T03:27:16;1.20;;;0.20;;
3971;SDS011;2000;47.572;14.202;2023-08-30T03:29:43;1.03;;;0.30;;
3971;SDS011;2000;47.572;14.202;2023-08-30T03:32:13;0.30;;;0.20;;
3971;SDS011;2000;47.572;14.202;2023-08-30T03:34:44;1.17;;;0.40;;
3971;SDS011;2000;47.572;14.202;2023-08-30T03:37:15;4.53;;;0.50;;
3971;SDS011;2000;47.572;14.202;2023-08-30T03:39:42;0.30;;;0.20;;
3971;SDS011;2000;47.572;14.202;2023-08-30T03:42:09;0.40;;;0.30;;
3971;SDS011;2000;47.572;14.202;2023-08-30T03:44:37;0.30;;;0.23;;
3971;SDS011;2000;47.572;14.202;2023-08-30T03:47:04;1.10;;;0.20;;
3971;SDS011;2000;47.572;14.202;2023-08-30T03:49:31;2.77;;;0.67;;
3971;SDS011;2000;47.572;14.202;2023-08-30T03:51:58;1.00;;;0.40;;
3971;SDS011;2000;47.572;14.202;2023-08-30T03:54:25;1.00;;;0.57;;
3971;SDS011;2000;47.572;14.202;2023-08-30T03:56:52;0.40;;;0.40;;
3971;SDS011;2000;47.572;14.202;2023-08-30T03:59:19;0.90;;;0.47;;
3971;SDS011;2000;47.572;14.202;2023-08-30T04:01:46;2.00;;;0.30;;
3971;SDS011;2000;47.572;14.202;2023-08-30T04:04:13;2.80;;;0.30;;
3971;SDS011;2000;47.572;14.202;2023-08-30T04:06:41;1.27;;;0.60;;
3971;SDS011;2000;47.572;14.202;2023-08-30T04:09:07;0.30;;;0.20;;
3971;SDS011;2000;47.572;14.202;2023-08-30T04:11:34;0.30;;;0.30;;
3971;SDS011;2000;47.572;14.202;2023-08-30T04:14:01;0.30;;;0.20;;
3971;SDS011;2000;47.572;14.202;2023-08-30T04:16:29;0.83;;;0.20;;
3971;SDS011;2000;47.572;14.202;2023-08-30T04:18:56;0.20;;;0.20;;
3971;SDS011;2000;47.572;14.202;2023-08-30T04:21:23;1.97;;;0.37;;
3971;SDS011;2000;47.572;14.202;2023-08-30T04:23:50;0.30;;;0.20;;
3971;SDS011;2000;47.572;14.202;2023-08-30T04:26:17;2.43;;;0.20;;
3971;SDS011;2000;47.572;14.202;2023-08-30T04:28:44;0.80;;;0.23;;
3971;SDS011;2000;47.572;14.202;2023-08-30T04:31:11;0.20;;;0.20;;
3971;SDS011;2000;47.572;14.202;2023-08-30T04:33:38;0.83;;;0.60;;
3971;SDS011;2000;47.572;14.202;2023-08-30T04:36:06;1.70;;;0.30;;
3971;SDS011;2000;47.572;14.202;2023-08-30T04:38:35;0.40;;;0.20;;
3971;SDS011;2000;47.572;14.202;2023-08-30T04:41:17;2.23;;;0.20;;
3971;SDS011;2000;47.572;14.202;2023-08-30T04:43:44;2.57;;;0.50;;
3971;SDS011;2000;47.572;14.202;2023-08-30T04:46:11;0.63;;;0.20;;
3971;SDS011;2000;47.572;14.202;2023-08-30T04:48:38;2.30;;;0.37;;
3971;SDS011;2000;47.572;14.202;2023-08-30T04:51:05;1.23;;;0.30;;
3971;SDS011;2000;47.572;14.202;2023-08-30T04:53:32;0.97;;;0.40;;
3971;SDS011;2000;47.572;14.202;2023-08-30T04:55:59;5.60;;;0.30;;
3971;SDS011;2000;47.572;14.202;2023-08-30T04:58:26;0.60;;;0.50;;
3971;SDS011;2000;47.572;14.202;2023-08-30T05:00:54;3.33;;;0.33;;
3971;SDS011;2000;47.572;14.202;2023-08-30T05:03:22;2.90;;;0.30;;
3971;SDS011;2000;47.572;14.202;2023-08-30T05:05:49;0.30;;;0.20;;
3971;SDS011;2000;47.572;14.202;2023-08-30T05:08:16;1.17;;;0.30;;
3971;SDS011;2000;47.572;14.202;2023-08-30T05:10:43;1.80;;;0.20;;
3971;SDS011;2000;47.572;14.202;2023-08-30T05:13:10;0.30;;;0.20;;
3971;SDS011;2000;47.572;14.202;2023-08-30T05:15:37;2.63;;;0.20;;
3971;SDS011;2000;47.572;14.202;2023-08-30T05:18:04;0.30;;;0.20;;
3971;SDS011;2000;47.572;14.202;2023-08-30T05:20:31;2.10;;;0.30;;
3971;SDS011;2000;47.572;14.202;2023-08-30T05:22:58;0.50;;;0.40;;
3971;SDS011;2000;47.572;14.202;2023-08-30T05:25:25;0.50;;;0.20;;
3971;SDS011;2000;47.572;14.202;2023-08-30T05:27:52;0.40;;;0.30;;
3971;SDS011;2000;47.572;14.202;2023-08-30T05:30:19;1.03;;;0.30;;
3971;SDS011;2000;47.572;14.202;2023-08-30T05:32:46;0.30;;;0.30;;
3971;SDS011;2000;47.572;14.202;2023-08-30T05:35:13;1.17;;;0.40;;
3971;SDS011;2000;47.572;14.202;2023-08-30T05:37:40;0.63;;;0.37;;
3971;SDS011;2000;47.572;14.202;2023-08-30T05:40:07;1.17;;;0.23;;
3971;SDS011;2000;47.572;14.202;2023-08-30T05:42:34;0.30;;;0.20;;
3971;SDS011;2000;47.572;14.202;2023-08-30T05:45:01;1.13;;;0.20;;
3971;SDS011;2000;47.572;14.202;2023-08-30T05:47:28;0.90;;;0.30;;
3971;SDS011;2000;47.572;14.202;2023-08-30T05:49:55;0.30;;;0.20;;
3971;SDS011;2000;47.572;14.202;2023-08-30T05:52:23;1.50;;;0.20;;
3971;SDS011;2000;47.572;14.202;2023-08-30T05:54:51;4.13;;;0.30;;
3971;SDS011;2000;47.572;14.202;2023-08-30T05:57:18;0.70;;;0.30;;
3971;SDS011;2000;47.572;14.202;2023-08-30T05:59:45;0.30;;;0.20;;
3971;SDS011;2000;47.572;14.202;2023-08-30T06:02:12;0.40;;;0.40;;
3971;SDS011;2000;47.572;14.202;2023-08-30T06:04:39;0.30;;;0.20;;
3971;SDS011;2000;47.572;14.202;2023-08-30T06:07:07;0.50;;;0.20;;
3971;SDS011;2000;47.572;14.202;2023-08-30T06:09:35;0.80;;;0.30;;
3971;SDS011;2000;47.572;14.202;2023-08-30T06:12:01;0.20;;;0.20;;
3971;SDS011;2000;47.572;14.202;2023-08-30T06:14:29;0.30;;;0.30;;
3971;SDS011;2000;47.572;14.202;2023-08-30T06:16:56;0.30;;;0.20;;
3971;SDS011;2000;47.572;14.202;2023-08-30T06:19:22;2.10;;;0.20;;
3971;SDS011;2000;47.572;14.202;2023-08-30T06:21:49;2.37;;;0.27;;
3971;SDS011;2000;47.572;14.202;2023-08-30T06:24:16;0.27;;;0.20;;
3971;SDS011;2000;47.572;14.202;2023-08-30T06:26:43;1.90;;;0.20;;
3971;SDS011;2000;47.572;14.202;2023-08-30T06:29:10;0.30;;;0.20;;
3971;SDS011;2000;47.572;14.202;2023-08-30T06:31:37;2.23;;;0.40;;
3971;SDS011;2000;47.572;14.202;2023-08-30T06:34:05;0.40;;;0.30;;
3971;SDS011;2000;47.572;14.202;2023-08-30T06:36:32;2.33;;;0.53;;
3971;SDS011;2000;47.572;14.202;2023-08-30T06:38:59;3.80;;;0.40;;
3971;SDS011;2000;47.572;14.202;2023-08-30T06:41:26;13.23;;;0.50;;
3971;SDS011;2000;47.572;14.202;2023-08-30T06:43:53;2.20;;;0.30;;
3971;SDS011;2000;47.572;14.202;2023-08-30T06:46:20;0.70;;;0.30;;
3971;SDS011;2000;47.572;14.202;2023-08-30T06:48:47;0.60;;;0.30;;
3971;SDS011;2000;47.572;14.202;2023-08-30T06:51:14;1.17;;;0.57;;
3971;SDS011;2000;47.572;14.202;2023-08-30T06:53:41;0.57;;;0.57;;
3971;SDS011;2000;47.572;14.202;2023-08-30T06:56:08;2.10;;;0.30;;
3971;SDS011;2000;47.572;14.202;2023-08-30T06:58:35;0.53;;;0.30;;
3971;SDS011;2000;47.572;14.202;2023-08-30T07:01:02;2.23;;;0.20;;
3971;SDS011;2000;47.572;14.202;2023-08-30T07:03:30;0.37;;;0.30;;
3971;SDS011;2000;47.572;14.202;2023-08-30T07:05:56;0.47;;;0.47;;
3971;SDS011;2000;47.572;14.202;2023-08-30T07:08:23;0.30;;;0.30;;
3971;SDS011;2000;47.572;14.202;2023-08-30T07:10:51;3.43;;;0.73;;
3971;SDS011;2000;47.572;14.202;2023-08-30T07:13:18;1.33;;;0.40;;
3971;SDS011;2000;47.572;14.202;2023-08-30T07:15:45;0.30;;;0.20;;
3971;SDS011;2000;47.572;14.202;2023-08-30T07:18:13;0.30;;;0.20;;
3971;SDS011;2000;47.572;14.202;2023-08-30T07:20:41;0.50;;;0.30;;
3971;SDS011;2000;47.572;14.202;2023-08-30T07:23:08;0.90;;;0.30;;
3971;SDS011;2000;47.572;14.202;2023-08-30T07:25:37;0.30;;;0.20;;
3971;SDS011;2000;47.572;14.202;2023-08-30T07:28:04;0.60;;;0.40;;
3971;SDS011;2000;47.572;14.202;2023-08-30T07:30:32;0.50;;;0.30;;
3971;SDS011;2000;47.572;14.202;2023-08-30T07:33:01;3.57;;;1.70;;
3971;SDS011;2000;47.572;14.202;2023-08-30T07:35:30;3.70;;;1.27;;
3971;SDS011;2000;47.572;14.202;2023-08-30T07:37:58;3.30;;;0.80;;
3971;SDS011;2000;47.572;14.202;2023-08-30T07:40:25;1.20;;;0.73;;
3971;SDS011;2000;47.572;14.202;2023-08-30T07:42:54;0.40;;;0.30;;
3971;SDS011;2000;47.572;14.202;2023-08-30T07:45:25;0.30;;;0.27;;
3971;SDS011;2000;47.572;14.202;2023-08-30T07:47:52;0.40;;;0.40;;
3971;SDS011;2000;47.572;14.202;2023-08-30T07:50:19;0.53;;;0.53;;
3971;SDS011;2000;47.572;14.202;2023-08-30T07:52:46;5.90;;;0.30;;
3971;SDS011;2000;47.572;14.202;2023-08-30T07:55:13;0.30;;;0.20;;
3971;SDS011;2000;47.572;14.202;2023-08-30T07:57:40;0.40;;;0.30;;
3971;SDS011;2000;47.572;14.202;2023-08-30T08:00:07;0.40;;;0.20;;
3971;SDS011;2000;47.572;14.202;2023-08-30T08:02:35;0.30;;;0.20;;
3971;SDS011;2000;47.572;14.202;2023-08-30T08:05:02;2.30;;;0.30;;
3971;SDS011;2000;47.572;14.202;2023-08-30T08:07:29;0.37;;;0.30;;
3971;SDS011;2000;47.572;14.202;2023-08-30T08:09:56;1.63;;;0.30;;
3971;SDS011;2000;47.572;14.202;2023-08-30T08:12:23;0.40;;;0.30;;
3971;SDS011;2000;47.572;14.202;2023-08-30T08:14:51;1.17;;;0.30;;
3971;SDS011;2000;47.572;14.202;2023-08-30T08:17:17;0.40;;;0.20;;
3971;SDS011;2000;47.572;14.202;2023-08-30T08:19:44;3.40;;;0.50;;
3971;SDS011;2000;47.572;14.202;2023-08-30T08:22:11;5.30;;;1.80;;
3971;SDS011;2000;47.572;14.202;2023-08-30T08:24:38;9.87;;;3.97;;
3971;SDS011;2000;47.572;14.202;2023-08-30T08:27:05;4.17;;;2.87;;
3971;SDS011;2000;47.572;14.202;2023-08-30T08:29:32;2.40;;;0.80;;
3971;SDS011;2000;47.572;14.202;2023-08-30T08:31:59;3.30;;;0.53;;
3971;SDS011;2000;47.572;14.202;2023-08-30T08:34:26;0.70;;;0.40;;
3971;SDS011;2000;47.572;14.202;2023-08-30T08:36:53;0.50;;;0.50;;
3971;SDS011;2000;47.572;14.202;2023-08-30T08:39:20;3.10;;;0.47;;
3971;SDS011;2000;47.572;14.202;2023-08-30T08:41:47;3.80;;;0.97;;
3971;SDS011;2000;47.572;14.202;2023-08-30T08:44:14;1.67;;;0.43;;
3971;SDS011;2000;47.572;14.202;2023-08-30T08:46:41;0.30;;;0.30;;
3971;SDS011;2000;47.572;14.202;2023-08-30T08:49:10;1.17;;;0.30;;
3971;SDS011;2000;47.572;14.202;2023-08-30T08:51:40;2.30;;;0.30;;
3971;SDS011;2000;47.572;14.202;2023-08-30T08:54:08;1.17;;;0.50;;
3971;SDS011;2000;47.572;14.202;2023-08-30T08:56:36;0.97;;;0.33;;
3971;SDS011;2000;47.572;14.202;2023-08-30T08:59:03;3.07;;;0.40;;
3971;SDS011;2000;47.572;14.202;2023-08-30T09:01:35;0.47;;;0.47;;
3971;SDS011;2000;47.572;14.202;2023-08-30T09:04:09;2.00;;;0.50;;
3971;SDS011;2000;47.572;14.202;2023-08-30T09:06:38;1.50;;;0.70;;
3971;SDS011;2000;47.572;14.202;2023-08-30T09:09:11;1.27;;;1.17;;
3971;SDS011;2000;47.572;14.202;2023-08-30T09:11:38;1.80;;;1.17;;
3971;SDS011;2000;47.572;14.202;2023-08-30T09:14:11;3.17;;;1.20;;
3971;SDS011;2000;47.572;14.202;2023-08-30T09:16:37;1.27;;;0.90;;
3971;SDS011;2000;47.572;14.202;2023-08-30T09:19:04;1.10;;;0.70;;
3971;SDS011;2000;47.572;14.202;2023-08-30T09:21:36;1.50;;;1.20;;
3971;SDS011;2000;47.572;14.202;2023-08-30T09:24:04;0.90;;;0.80;;
3971;SDS011;2000;47.572;14.202;2023-08-30T09:26:32;3.50;;;1.20;;
3971;SDS011;2000;47.572;14.202;2023-08-30T09:31:33;5.53;;;1.33;;
3971;SDS011;2000;47.572;14.202;2023-08-30T09:34:01;2.20;;;1.70;;
3971;SDS011;2000;47.572;14.202;2023-08-30T09:36:38;2.13;;;1.33;;
3971;SDS011;2000;47.572;14.202;2023-08-30T09:39:13;2.60;;;2.40;;
3971;SDS011;2000;47.572;14.202;2023-08-30T09:41:41;2.53;;;1.37;;
3971;SDS011;2000;47.572;14.202;2023-08-30T09:44:12;1.07;;;1.07;;
3971;SDS011;2000;47.572;14.202;2023-08-30T09:46:41;1.43;;;1.33;;
3971;SDS011;2000;47.572;14.202;2023-08-30T09:49:18;2.83;;;1.83;;
3971;SDS011;2000;47.572;14.202;2023-08-30T09:51:47;1.77;;;1.40;;
3971;SDS011;2000;47.572;14.202;2023-08-30T09:54:16;1.43;;;1.33;;
3971;SDS011;2000;47.572;14.202;2023-08-30T09:57:04;1.33;;;1.23;;
3971;SDS011;2000;47.572;14.202;2023-08-30T09:59:31;2.30;;;1.70;;
3971;SDS011;2000;47.572;14.202;2023-08-30T10:01:58;2.90;;;1.10;;
3971;SDS011;2000;47.572;14.202;2023-08-30T10:04:27;2.00;;;1.77;;
3971;SDS011;2000;47.572;14.202;2023-08-30T10:06:55;1.03;;;1.03;;
3971;SDS011;2000;47.572;14.202;2023-08-30T10:09:24;1.20;;;1.07;;
3971;SDS011;2000;47.572;14.202;2023-08-30T10:11:51;10.63;;;1.40;;
3971;SDS011;2000;47.572;14.202;2023-08-30T10:14:18;1.50;;;1.40;;
3971;SDS011;2000;47.572;14.202;2023-08-30T10:16:45;1.60;;;1.50;;
3971;SDS011;2000;47.572;14.202;2023-08-30T10:19:14;7.73;;;1.60;;
3971;SDS011;2000;47.572;14.202;2023-08-30T10:21:47;3.23;;;1.43;;
3971;SDS011;2000;47.572;14.202;2023-08-30T10:24:14;5.43;;;2.00;;
3971;SDS011;2000;47.572;14.202;2023-08-30T10:27:00;2.43;;;1.10;;
3971;SDS011;2000;47.572;14.202;2023-08-30T10:29:29;4.70;;;1.20;;
3971;SDS011;2000;47.572;14.202;2023-08-30T10:32:01;7.23;;;1.40;;
3971;SDS011;2000;47.572;14.202;2023-08-30T10:34:33;4.70;;;1.43;;
3971;SDS011;2000;47.572;14.202;2023-08-30T10:37:02;4.07;;;1.17;;
3971;SDS011;2000;47.572;14.202;2023-08-30T10:39:38;1.00;;;0.97;;
3971;SDS011;2000;47.572;14.202;2023-08-30T10:42:13;4.10;;;1.10;;
3971;SDS011;2000;47.572;14.202;2023-08-30T10:45:04;1.10;;;0.87;;
3971;SDS011;2000;47.572;14.202;2023-08-30T10:47:35;1.93;;;0.83;;
3971;SDS011;2000;47.572;14.202;2023-08-30T10:50:11;2.30;;;1.40;;
3971;SDS011;2000;47.572;14.202;2023-08-30T10:52:38;0.73;;;0.73;;
3971;SDS011;2000;47.572;14.202;2023-08-30T10:55:06;1.13;;;1.13;;
3971;SDS011;2000;47.572;14.202;2023-08-30T10:57:36;1.67;;;0.90;;
3971;SDS011;2000;47.572;14.202;2023-08-30T11:02:33;2.20;;;1.37;;
3971;SDS011;2000;47.572;14.202;2023-08-30T11:05:00;1.67;;;0.70;;
3971;SDS011;2000;47.572;14.202;2023-08-30T11:07:29;1.13;;;0.90;;
3971;SDS011;2000;47.572;14.202;2023-08-30T11:09:57;1.40;;;0.80;;
3971;SDS011;2000;47.572;14.202;2023-08-30T11:12:24;0.70;;;0.70;;
3971;SDS011;2000;47.572;14.202;2023-08-30T11:14:56;1.30;;;1.20;;
3971;SDS011;2000;47.572;14.202;2023-08-30T11:17:23;1.10;;;1.10;;
3971;SDS011;2000;47.572;14.202;2023-08-30T11:19:50;1.97;;;1.30;;
3971;SDS011;2000;47.572;14.202;2023-08-30T11:22:18;0.90;;;0.90;;
3971;SDS011;2000;47.572;14.202;2023-08-30T11:24:47;1.60;;;1.50;;
3971;SDS011;2000;47.572;14.202;2023-08-30T11:27:18;0.80;;;0.80;;
3971;SDS011;2000;47.572;14.202;2023-08-30T11:29:45;5.00;;;1.40;;
3971;SDS011;2000;47.572;14.202;2023-08-30T11:32:12;2.50;;;1.20;;
3971;SDS011;2000;47.572;14.202;2023-08-30T11:34:39;1.67;;;1.57;;
3971;SDS011;2000;47.572;14.202;2023-08-30T11:37:07;2.77;;;1.20;;
3971;SDS011;2000;47.572;14.202;2023-08-30T11:39:34;2.53;;;1.13;;
3971;SDS011;2000;47.572;14.202;2023-08-30T11:42:03;1.50;;;1.40;;
3971;SDS011;2000;47.572;14.202;2023-08-30T11:44:44;3.03;;;1.17;;
3971;SDS011;2000;47.572;14.202;2023-08-30T11:47:17;1.23;;;1.13;;
3971;SDS011;2000;47.572;14.202;2023-08-30T11:49:45;2.87;;;1.13;;
3971;SDS011;2000;47.572;14.202;2023-08-30T11:52:13;1.70;;;1.10;;
3971;SDS011;2000;47.572;14.202;2023-08-30T11:54:40;1.10;;;0.80;;
3971;SDS011;2000;47.572;14.202;2023-08-30T11:57:08;1.67;;;1.23;;
3971;SDS011;2000;47.572;14.202;2023-08-30T11:59:35;1.40;;;1.30;;
3971;SDS011;2000;47.572;14.202;2023-08-30T12:02:03;1.23;;;0.87;;
3971;SDS011;2000;47.572;14.202;2023-08-30T12:04:30;0.90;;;0.90;;
3971;SDS011;2000;47.572;14.202;2023-08-30T12:06:57;1.27;;;0.87;;
3971;SDS011;2000;47.572;14.202;2023-08-30T12:09:32;1.77;;;1.30;;
3971;SDS011;2000;47.572;14.202;2023-08-30T12:12:05;5.13;;;1.77;;
3971;SDS011;2000;47.572;14.202;2023-08-30T12:14:35;2.33;;;1.10;;
3971;SDS011;2000;47.572;14.202;2023-08-30T12:17:03;1.83;;;1.00;;
3971;SDS011;2000;47.572;14.202;2023-08-30T12:19:31;2.63;;;1.43;;
3971;SDS011;2000;47.572;14.202;2023-08-30T12:22:04;4.13;;;1.37;;
3971;SDS011;2000;47.572;14.202;2023-08-30T12:24:44;1.00;;;0.90;;
3971;SDS011;2000;47.572;14.202;2023-08-30T12:27:12;0.53;;;0.53;;
3971;SDS011;2000;47.572;14.202;2023-08-30T12:29:40;3.37;;;1.20;;
3971;SDS011;2000;47.572;14.202;2023-08-30T12:32:07;3.50;;;1.00;;
3971;SDS011;2000;47.572;14.202;2023-08-30T12:34:34;1.30;;;0.87;;
3971;SDS011;2000;47.572;14.202;2023-08-30T12:37:02;2.23;;;1.20;;
3971;SDS011;2000;47.572;14.202;2023-08-30T12:39:31;0.87;;;0.77;;
3971;SDS011;2000;47.572;14.202;2023-08-30T12:41:58;1.20;;;1.10;;
3971;SDS011;2000;47.572;14.202;2023-08-30T12:44:26;0.83;;;0.83;;
3971;SDS011;2000;47.572;14.202;2023-08-30T12:46:53;1.10;;;1.00;;
3971;SDS011;2000;47.572;14.202;2023-08-30T12:49:20;0.93;;;0.80;;
3971;SDS011;2000;47.572;14.202;2023-08-30T12:51:47;1.07;;;0.80;;
3971;SDS011;2000;47.572;14.202;2023-08-30T12:54:14;3.43;;;0.80;;
3971;SDS011;2000;47.572;14.202;2023-08-30T12:56:41;1.10;;;1.00;;
3971;SDS011;2000;47.572;14.202;2023-08-30T12:59:07;0.83;;;0.80;;
3971;SDS011;2000;47.572;14.202;2023-08-30T13:01:34;4.10;;;0.93;;
3971;SDS011;2000;47.572;14.202;2023-08-30T13:04:01;1.00;;;1.00;;
3971;SDS011;2000;47.572;14.202;2023-08-30T13:06:29;4.03;;;1.13;;
3971;SDS011;2000;47.572;14.202;2023-08-30T13:08:56;0.50;;;0.50;;
3971;SDS011;2000;47.572;14.202;2023-08-30T13:11:23;1.20;;;0.90;;
3971;SDS011;2000;47.572;14.202;2023-08-30T13:13:52;2.43;;;1.13;;
3971;SDS011;2000;47.572;14.202;2023-08-30T13:16:19;1.27;;;1.10;;
3971;SDS011;2000;47.572;14.202;2023-08-30T13:18:46;1.87;;;1.20;;
3971;SDS011;2000;47.572;14.202;2023-08-30T13:21:13;0.80;;;0.70;;
3971;SDS011;2000;47.572;14.202;2023-08-30T13:23:42;0.80;;;0.80;;
3971;SDS011;2000;47.572;14.202;2023-08-30T13:26:09;3.53;;;0.97;;
3971;SDS011;2000;47.572;14.202;2023-08-30T13:28:36;0.90;;;0.80;;
3971;SDS011;2000;47.572;14.202;2023-08-30T13:31:06;2.20;;;1.20;;
3971;SDS011;2000;47.572;14.202;2023-08-30T13:33:33;1.20;;;1.10;;
3971;SDS011;2000;47.572;14.202;2023-08-30T13:36:00;4.97;;;1.20;;
3971;SDS011;2000;47.572;14.202;2023-08-30T13:38:28;1.70;;;0.77;;
3971;SDS011;2000;47.572;14.202;2023-08-30T13:40:58;1.27;;;1.13;;
3971;SDS011;2000;47.572;14.202;2023-08-30T13:43:30;2.97;;;0.90;;
3971;SDS011;2000;47.572;14.202;2023-08-30T13:45:58;1.23;;;0.90;;
3971;SDS011;2000;47.572;14.202;2023-08-30T13:48:25;2.93;;;1.43;;
3971;SDS011;2000;47.572;14.202;2023-08-30T13:50:52;1.00;;;0.90;;
3971;SDS011;2000;47.572;14.202;2023-08-30T13:53:19;4.10;;;1.23;;
3971;SDS011;2000;47.572;14.202;2023-08-30T13:55:46;1.13;;;1.03;;
3971;SDS011;2000;47.572;14.202;2023-08-30T13:58:16;5.93;;;1.07;;
3971;SDS011;2000;47.572;14.202;2023-08-30T14:00:44;1.43;;;1.00;;
3971;SDS011;2000;47.572;14.202;2023-08-30T14:03:11;0.77;;;0.77;;
3971;SDS011;2000;47.572;14.202;2023-08-30T14:05:39;3.07;;;0.77;;
3971;SDS011;2000;47.572;14.202;2023-08-30T14:08:09;2.30;;;1.03;;
3971;SDS011;2000;47.572;14.202;2023-08-30T14:10:36;1.20;;;1.10;;
3971;SDS011;2000;47.572;14.202;2023-08-30T14:13:03;1.90;;;0.93;;
3971;SDS011;2000;47.572;14.202;2023-08-30T14:15:31;1.53;;;1.10;;
3971;SDS011;2000;47.572;14.202;2023-08-30T14:17:58;1.10;;;1.00;;
3971;SDS011;2000;47.572;14.202;2023-08-30T14:20:25;3.90;;;0.97;;
3971;SDS011;2000;47.572;14.202;2023-08-30T14:22:52;0.77;;;0.73;;
3971;SDS011;2000;47.572;14.202;2023-08-30T14:25:19;2.60;;;0.80;;
3971;SDS011;2000;47.572;14.202;2023-08-30T14:27:46;2.30;;;1.20;;
3971;SDS011;2000;47.572;14.202;2023-08-30T14:30:13;1.10;;;1.00;;
3971;SDS011;2000;47.572;14.202;2023-08-30T14:32:40;0.97;;;0.70;;
3971;SDS011;2000;47.572;14.202;2023-08-30T14:35:07;1.60;;;0.80;;
3971;SDS011;2000;47.572;14.202;2023-08-30T14:37:34;3.43;;;1.00;;
3971;SDS011;2000;47.572;14.202;2023-08-30T14:40:05;1.27;;;1.17;;
3971;SDS011;2000;47.572;14.202;2023-08-30T14:42:33;1.87;;;1.17;;
3971;SDS011;2000;47.572;14.202;2023-08-30T14:45:00;0.70;;;0.70;;
3971;SDS011;2000;47.572;14.202;2023-08-30T14:47:29;6.27;;;1.60;;
3971;SDS011;2000;47.572;14.202;2023-08-30T14:49:57;1.50;;;0.70;;
3971;SDS011;2000;47.572;14.202;2023-08-30T14:52:24;0.80;;;0.73;;
3971;SDS011;2000;47.572;14.202;2023-08-30T14:54:51;3.83;;;1.10;;
3971;SDS011;2000;47.572;14.202;2023-08-30T14:57:18;1.50;;;1.07;;
3971;SDS011;2000;47.572;14.202;2023-08-30T14:59:45;3.60;;;1.10;;
3971;SDS011;2000;47.572;14.202;2023-08-30T15:02:13;1.10;;;1.10;;
3971;SDS011;2000;47.572;14.202;2023-08-30T15:04:40;1.63;;;1.10;;
3971;SDS011;2000;47.572;14.202;2023-08-30T15:07:07;0.70;;;0.67;;
3971;SDS011;2000;47.572;14.202;2023-08-30T15:09:34;1.10;;;1.00;;
3971;SDS011;2000;47.572;14.202;2023-08-30T15:12:01;1.33;;;0.87;;
3971;SDS011;2000;47.572;14.202;2023-08-30T15:14:28;1.30;;;1.20;;
3971;SDS011;2000;47.572;14.202;2023-08-30T15:16:54;1.10;;;1.10;;